WMKP/PEN METAR and TAF weather

Enter ICAO airport designator
Station Type Date Time Source
WMKP METAR 2018/12/11 22:00 UTC NOAA

WMKP 112200Z 05003KT 010V080 8000 -TSRA FEW010 FEW017CB SCT024 BKN260 26/25 Q1009 NOSIG


Station Type Date Time Source
WMKP Decoded METAR 2018/12/11 22:00 UTC NOAA

Penang / Bayan Lepas, Malaysia (WMKP) 05-18N 100-16E 4M
Dec 11, 2018 - 05:00 PM EST / 2018.12.11 2200 UTC
Wind: from the NE (050 degrees) at 3 MPH (3 KT) (direction variable):0
Visibility: 4 mile(s):0
Sky conditions: mostly cloudy
Weather: light rain with thunder; Cumulonimbus clouds observed
Temperature: 78 F (26 C)
Dew Point: 77 F (25 C)
Relative Humidity: 94%
Pressure (altimeter): 29.80 in. Hg (1009 hPa)
ob: WMKP 112200Z 05003KT 010V080 8000 -TSRA FEW010 FEW017CB SCT024 BKN260 26/25 Q1009 NOSIG
cycle: 22

Station Type Date Time Source
WMKP TAF 2018/12/11 18:09 UTC NOAA

TAF WMKP 111700Z 1118/1218 03005KT 9999 FEW025 SCT140 BKN270
TEMPO 1118/1122 5000 TSRA FEW010 FEW017CB
BECMG 1207/1209 21005KT


Example: see airport list